sensor_id;sensor_type;location;lat;lon;timestamp;temperature;humidity
33095;DHT22;19459;53.044;8.910;2023-02-15T00:01:44;2.50;99.90
33095;DHT22;19459;53.044;8.910;2023-02-15T00:04:13;2.40;99.90
33095;DHT22;19459;53.044;8.910;2023-02-15T00:06:40;2.40;99.90
33095;DHT22;19459;53.044;8.910;2023-02-15T00:09:06;2.40;99.90
33095;DHT22;19459;53.044;8.910;2023-02-15T00:11:32;2.40;99.90
33095;DHT22;19459;53.044;8.910;2023-02-15T00:14:17;2.30;99.90
33095;DHT22;19459;53.044;8.910;2023-02-15T00:16:46;2.30;99.90
33095;DHT22;19459;53.044;8.910;2023-02-15T00:19:16;2.20;99.90
33095;DHT22;19459;53.044;8.910;2023-02-15T00:21:45;2.20;99.90
33095;DHT22;19459;53.044;8.910;2023-02-15T00:24:15;2.20;99.90
33095;DHT22;19459;53.044;8.910;2023-02-15T00:26:43;2.20;99.90
33095;DHT22;19459;53.044;8.910;2023-02-15T00:29:10;2.10;99.90
33095;DHT22;19459;53.044;8.910;2023-02-15T00:31:37;2.10;99.90
33095;DHT22;19459;53.044;8.910;2023-02-15T00:34:12;2.20;99.90
33095;DHT22;19459;53.044;8.910;2023-02-15T00:36:39;2.20;99.90
33095;DHT22;19459;53.044;8.910;2023-02-15T00:39:05;2.30;99.90
33095;DHT22;19459;53.044;8.910;2023-02-15T00:41:32;2.40;99.90
33095;DHT22;19459;53.044;8.910;2023-02-15T00:43:58;2.40;99.90
33095;DHT22;19459;53.044;8.910;2023-02-15T00:46:24;2.50;99.90
33095;DHT22;19459;53.044;8.910;2023-02-15T00:48:50;2.50;99.90
33095;DHT22;19459;53.044;8.910;2023-02-15T00:51:16;2.40;99.90
33095;DHT22;19459;53.044;8.910;2023-02-15T00:53:43;2.40;99.90
33095;DHT22;19459;53.044;8.910;2023-02-15T00:56:12;2.40;99.90
33095;DHT22;19459;53.044;8.910;2023-02-15T00:58:38;2.50;99.90
33095;DHT22;19459;53.044;8.910;2023-02-15T01:01:09;2.40;99.90
33095;DHT22;19459;53.044;8.910;2023-02-15T01:03:37;2.40;99.90
33095;DHT22;19459;53.044;8.910;2023-02-15T01:06:04;2.30;99.90
33095;DHT22;19459;53.044;8.910;2023-02-15T01:08:30;2.40;99.90
33095;DHT22;19459;53.044;8.910;2023-02-15T01:10:56;2.30;99.90
33095;DHT22;19459;53.044;8.910;2023-02-15T01:13:22;2.20;99.90
33095;DHT22;19459;53.044;8.910;2023-02-15T01:15:55;2.20;99.90
33095;DHT22;19459;53.044;8.910;2023-02-15T01:18:21;2.10;99.90
33095;DHT22;19459;53.044;8.910;2023-02-15T01:20:47;2.00;99.90
33095;DHT22;19459;53.044;8.910;2023-02-15T01:23:13;2.00;99.90
33095;DHT22;19459;53.044;8.910;2023-02-15T01:25:39;2.00;99.90
33095;DHT22;19459;53.044;8.910;2023-02-15T01:28:05;2.00;99.90
33095;DHT22;19459;53.044;8.910;2023-02-15T01:30:31;2.00;99.90
33095;DHT22;19459;53.044;8.910;2023-02-15T01:32:57;1.90;99.90
33095;DHT22;19459;53.044;8.910;2023-02-15T01:35:24;1.80;99.90
33095;DHT22;19459;53.044;8.910;2023-02-15T01:37:49;1.80;99.90
33095;DHT22;19459;53.044;8.910;2023-02-15T01:40:17;1.90;99.90
33095;DHT22;19459;53.044;8.910;2023-02-15T01:42:43;1.90;99.90
33095;DHT22;19459;53.044;8.910;2023-02-15T01:45:32;1.90;99.90
33095;DHT22;19459;53.044;8.910;2023-02-15T01:47:58;1.90;99.90
33095;DHT22;19459;53.044;8.910;2023-02-15T01:53:35;1.80;99.90
33095;DHT22;19459;53.044;8.910;2023-02-15T01:56:14;1.80;99.90
33095;DHT22;19459;53.044;8.910;2023-02-15T01:58:42;1.70;99.90
33095;DHT22;19459;53.044;8.910;2023-02-15T02:01:09;1.70;99.90
33095;DHT22;19459;53.044;8.910;2023-02-15T02:04:03;1.60;99.90
33095;DHT22;19459;53.044;8.910;2023-02-15T02:06:30;1.60;99.90
33095;DHT22;19459;53.044;8.910;2023-02-15T02:08:57;1.60;99.90
33095;DHT22;19459;53.044;8.910;2023-02-15T02:11:23;1.50;99.90
33095;DHT22;19459;53.044;8.910;2023-02-15T02:13:50;1.50;99.90
33095;DHT22;19459;53.044;8.910;2023-02-15T02:21:41;1.50;99.90
33095;DHT22;19459;53.044;8.910;2023-02-15T02:24:38;1.40;99.90
33095;DHT22;19459;53.044;8.910;2023-02-15T02:30:54;1.50;99.90
33095;DHT22;19459;53.044;8.910;2023-02-15T02:37:08;1.40;99.90
33095;DHT22;19459;53.044;8.910;2023-02-15T02:40:08;1.40;99.90
33095;DHT22;19459;53.044;8.910;2023-02-15T02:42:43;1.40;99.90
33095;DHT22;19459;53.044;8.910;2023-02-15T02:45:36;1.40;99.90
33095;DHT22;19459;53.044;8.910;2023-02-15T02:48:27;1.40;99.90
33095;DHT22;19459;53.044;8.910;2023-02-15T02:50:53;1.30;99.90
33095;DHT22;19459;53.044;8.910;2023-02-15T02:53:19;1.10;99.90
33095;DHT22;19459;53.044;8.910;2023-02-15T02:56:09;1.10;99.90
33095;DHT22;19459;53.044;8.910;2023-02-15T02:58:51;1.10;99.90
33095;DHT22;19459;53.044;8.910;2023-02-15T03:04:02;1.00;99.90
33095;DHT22;19459;53.044;8.910;2023-02-15T03:09:12;1.10;99.90
33095;DHT22;19459;53.044;8.910;2023-02-15T03:11:43;1.10;99.90
33095;DHT22;19459;53.044;8.910;2023-02-15T03:14:10;1.10;99.90
33095;DHT22;19459;53.044;8.910;2023-02-15T03:16:37;1.10;99.90
33095;DHT22;19459;53.044;8.910;2023-02-15T03:19:13;1.10;99.90
33095;DHT22;19459;53.044;8.910;2023-02-15T03:21:49;1.10;99.90
33095;DHT22;19459;53.044;8.910;2023-02-15T03:24:25;1.10;99.90
33095;DHT22;19459;53.044;8.910;2023-02-15T03:26:56;1.10;99.90
33095;DHT22;19459;53.044;8.910;2023-02-15T03:29:26;1.10;99.90
33095;DHT22;19459;53.044;8.910;2023-02-15T03:32:01;1.10;99.90
33095;DHT22;19459;53.044;8.910;2023-02-15T03:34:29;1.10;99.90
33095;DHT22;19459;53.044;8.910;2023-02-15T03:37:02;0.90;99.90
33095;DHT22;19459;53.044;8.910;2023-02-15T03:42:19;0.90;99.90
33095;DHT22;19459;53.044;8.910;2023-02-15T03:45:08;0.80;99.90
33095;DHT22;19459;53.044;8.910;2023-02-15T03:47:38;0.90;99.90
33095;DHT22;19459;53.044;8.910;2023-02-15T03:50:10;0.90;99.90
33095;DHT22;19459;53.044;8.910;2023-02-15T03:52:59;0.80;99.90
33095;DHT22;19459;53.044;8.910;2023-02-15T03:55:27;0.70;99.90
33095;DHT22;19459;53.044;8.910;2023-02-15T03:57:53;0.60;99.90
33095;DHT22;19459;53.044;8.910;2023-02-15T04:00:38;0.60;99.90
33095;DHT22;19459;53.044;8.910;2023-02-15T04:03:31;0.80;99.90
33095;DHT22;19459;53.044;8.910;2023-02-15T04:06:00;0.80;99.90
33095;DHT22;19459;53.044;8.910;2023-02-15T04:08:27;0.80;99.90
33095;DHT22;19459;53.044;8.910;2023-02-15T04:11:11;0.80;99.90
33095;DHT22;19459;53.044;8.910;2023-02-15T04:13:37;0.70;99.90
33095;DHT22;19459;53.044;8.910;2023-02-15T04:16:04;0.70;99.90
33095;DHT22;19459;53.044;8.910;2023-02-15T04:18:38;0.70;99.90
33095;DHT22;19459;53.044;8.910;2023-02-15T04:21:24;0.70;99.90
33095;DHT22;19459;53.044;8.910;2023-02-15T04:24:11;0.70;99.90
33095;DHT22;19459;53.044;8.910;2023-02-15T04:26:56;0.70;99.90
33095;DHT22;19459;53.044;8.910;2023-02-15T04:29:23;0.60;99.90
33095;DHT22;19459;53.044;8.910;2023-02-15T04:31:51;0.50;99.90
33095;DHT22;19459;53.044;8.910;2023-02-15T04:34:17;0.50;99.90
33095;DHT22;19459;53.044;8.910;2023-02-15T04:36:43;0.60;99.90
33095;DHT22;19459;53.044;8.910;2023-02-15T04:39:11;0.60;99.90
33095;DHT22;19459;53.044;8.910;2023-02-15T04:41:38;0.60;99.90
33095;DHT22;19459;53.044;8.910;2023-02-15T04:44:04;0.50;99.90
33095;DHT22;19459;53.044;8.910;2023-02-15T04:46:30;0.60;99.90
33095;DHT22;19459;53.044;8.910;2023-02-15T04:48:58;0.60;99.90
33095;DHT22;19459;53.044;8.910;2023-02-15T04:51:24;0.60;99.90
33095;DHT22;19459;53.044;8.910;2023-02-15T04:53:50;0.40;99.90
33095;DHT22;19459;53.044;8.910;2023-02-15T04:56:19;0.50;99.90
33095;DHT22;19459;53.044;8.910;2023-02-15T04:58:46;0.50;99.90
33095;DHT22;19459;53.044;8.910;2023-02-15T05:01:12;0.60;99.90
33095;DHT22;19459;53.044;8.910;2023-02-15T05:03:38;0.60;99.90
33095;DHT22;19459;53.044;8.910;2023-02-15T05:06:04;0.70;99.90
33095;DHT22;19459;53.044;8.910;2023-02-15T05:08:31;0.60;99.90
33095;DHT22;19459;53.044;8.910;2023-02-15T05:10:57;0.60;99.90
33095;DHT22;19459;53.044;8.910;2023-02-15T05:13:23;0.60;99.90
33095;DHT22;19459;53.044;8.910;2023-02-15T05:15:50;0.60;99.90
33095;DHT22;19459;53.044;8.910;2023-02-15T05:18:18;0.60;99.90
33095;DHT22;19459;53.044;8.910;2023-02-15T05:20:45;0.60;99.90
33095;DHT22;19459;53.044;8.910;2023-02-15T05:23:11;0.60;99.90
33095;DHT22;19459;53.044;8.910;2023-02-15T05:25:37;0.50;99.90
33095;DHT22;19459;53.044;8.910;2023-02-15T05:28:23;0.50;99.90
33095;DHT22;19459;53.044;8.910;2023-02-15T05:31:11;0.50;99.90
33095;DHT22;19459;53.044;8.910;2023-02-15T05:33:38;0.50;99.90
33095;DHT22;19459;53.044;8.910;2023-02-15T05:36:05;0.50;99.90
33095;DHT22;19459;53.044;8.910;2023-02-15T05:38:32;0.50;99.90
33095;DHT22;19459;53.044;8.910;2023-02-15T05:40:59;0.40;99.90
33095;DHT22;19459;53.044;8.910;2023-02-15T05:43:25;0.40;99.90
33095;DHT22;19459;53.044;8.910;2023-02-15T05:45:53;0.40;99.90
33095;DHT22;19459;53.044;8.910;2023-02-15T05:48:22;0.40;99.90
33095;DHT22;19459;53.044;8.910;2023-02-15T05:50:59;0.40;99.90
33095;DHT22;19459;53.044;8.910;2023-02-15T05:53:37;0.40;99.90
33095;DHT22;19459;53.044;8.910;2023-02-15T05:56:04;0.40;99.90
33095;DHT22;19459;53.044;8.910;2023-02-15T05:58:34;0.40;99.90
33095;DHT22;19459;53.044;8.910;2023-02-15T06:01:21;0.30;99.90
33095;DHT22;19459;53.044;8.910;2023-02-15T06:03:48;0.20;99.90
33095;DHT22;19459;53.044;8.910;2023-02-15T06:06:14;0.20;99.90
33095;DHT22;19459;53.044;8.910;2023-02-15T06:08:40;0.00;99.90
33095;DHT22;19459;53.044;8.910;2023-02-15T06:11:06;0.00;99.90
33095;DHT22;19459;53.044;8.910;2023-02-15T06:13:33;0.00;99.90
33095;DHT22;19459;53.044;8.910;2023-02-15T06:15:59;0.10;99.90
33095;DHT22;19459;53.044;8.910;2023-02-15T06:18:25;0.10;99.90
33095;DHT22;19459;53.044;8.910;2023-02-15T06:20:51;0.10;99.90
33095;DHT22;19459;53.044;8.910;2023-02-15T06:23:17;0.20;99.90
33095;DHT22;19459;53.044;8.910;2023-02-15T06:25:44;0.20;99.90
33095;DHT22;19459;53.044;8.910;2023-02-15T06:28:12;0.20;99.90
33095;DHT22;19459;53.044;8.910;2023-02-15T06:30:38;0.10;99.90
33095;DHT22;19459;53.044;8.910;2023-02-15T06:33:04;0.20;99.90
33095;DHT22;19459;53.044;8.910;2023-02-15T06:35:30;0.20;99.90
33095;DHT22;19459;53.044;8.910;2023-02-15T06:37:55;0.10;99.90
33095;DHT22;19459;53.044;8.910;2023-02-15T06:40:21;0.10;99.90
33095;DHT22;19459;53.044;8.910;2023-02-15T06:42:47;0.10;99.90
33095;DHT22;19459;53.044;8.910;2023-02-15T06:45:13;0.10;99.90
33095;DHT22;19459;53.044;8.910;2023-02-15T06:47:38;0.10;99.90
33095;DHT22;19459;53.044;8.910;2023-02-15T06:50:05;0.20;99.90
33095;DHT22;19459;53.044;8.910;2023-02-15T06:52:32;0.10;99.90
33095;DHT22;19459;53.044;8.910;2023-02-15T06:54:58;0.10;99.90
33095;DHT22;19459;53.044;8.910;2023-02-15T06:57:24;0.10;99.90
33095;DHT22;19459;53.044;8.910;2023-02-15T06:59:49;0.10;99.90
33095;DHT22;19459;53.044;8.910;2023-02-15T07:02:15;0.10;99.90
33095;DHT22;19459;53.044;8.910;2023-02-15T07:04:41;0.10;99.90
33095;DHT22;19459;53.044;8.910;2023-02-15T07:07:11;0.20;99.90
33095;DHT22;19459;53.044;8.910;2023-02-15T07:09:37;0.20;99.90
33095;DHT22;19459;53.044;8.910;2023-02-15T07:12:03;0.20;99.90
33095;DHT22;19459;53.044;8.910;2023-02-15T07:14:48;0.20;99.90
33095;DHT22;19459;53.044;8.910;2023-02-15T07:17:14;0.10;99.90
33095;DHT22;19459;53.044;8.910;2023-02-15T07:19:43;0.10;99.90
33095;DHT22;19459;53.044;8.910;2023-02-15T07:22:09;0.10;99.90
33095;DHT22;19459;53.044;8.910;2023-02-15T07:24:34;0.10;99.90
33095;DHT22;19459;53.044;8.910;2023-02-15T07:27:00;0.10;99.90
33095;DHT22;19459;53.044;8.910;2023-02-15T07:29:26;0.00;99.90
33095;DHT22;19459;53.044;8.910;2023-02-15T07:31:52;0.00;99.90
33095;DHT22;19459;53.044;8.910;2023-02-15T07:34:17;0.00;99.90
33095;DHT22;19459;53.044;8.910;2023-02-15T07:36:43;0.10;99.90
33095;DHT22;19459;53.044;8.910;2023-02-15T07:39:10;0.10;99.90
33095;DHT22;19459;53.044;8.910;2023-02-15T07:41:36;0.20;99.90
33095;DHT22;19459;53.044;8.910;2023-02-15T07:44:02;0.20;99.90
33095;DHT22;19459;53.044;8.910;2023-02-15T07:46:28;0.30;99.90
33095;DHT22;19459;53.044;8.910;2023-02-15T07:48:55;0.30;99.90
33095;DHT22;19459;53.044;8.910;2023-02-15T07:51:21;0.30;99.90
33095;DHT22;19459;53.044;8.910;2023-02-15T07:53:47;0.40;99.90
33095;DHT22;19459;53.044;8.910;2023-02-15T07:56:21;0.40;99.90
33095;DHT22;19459;53.044;8.910;2023-02-15T07:58:47;0.40;99.90
33095;DHT22;19459;53.044;8.910;2023-02-15T08:01:20;0.40;99.90
33095;DHT22;19459;53.044;8.910;2023-02-15T08:03:49;0.40;99.90
33095;DHT22;19459;53.044;8.910;2023-02-15T08:06:15;0.50;99.90
33095;DHT22;19459;53.044;8.910;2023-02-15T08:08:41;0.50;99.90
33095;DHT22;19459;53.044;8.910;2023-02-15T08:11:15;0.50;99.90
33095;DHT22;19459;53.044;8.910;2023-02-15T08:14:10;0.60;99.90
33095;DHT22;19459;53.044;8.910;2023-02-15T08:16:48;0.70;99.90
33095;DHT22;19459;53.044;8.910;2023-02-15T08:19:21;0.80;99.90
33095;DHT22;19459;53.044;8.910;2023-02-15T08:21:50;0.90;99.90
33095;DHT22;19459;53.044;8.910;2023-02-15T08:24:18;0.90;99.90
33095;DHT22;19459;53.044;8.910;2023-02-15T08:26:46;0.90;99.90
33095;DHT22;19459;53.044;8.910;2023-02-15T08:29:18;0.90;99.90
33095;DHT22;19459;53.044;8.910;2023-02-15T08:31:48;1.00;99.90
33095;DHT22;19459;53.044;8.910;2023-02-15T08:34:17;1.00;99.90
33095;DHT22;19459;53.044;8.910;2023-02-15T08:36:44;1.10;99.90
33095;DHT22;19459;53.044;8.910;2023-02-15T08:39:14;1.10;99.90
33095;DHT22;19459;53.044;8.910;2023-02-15T08:41:43;1.10;99.90
33095;DHT22;19459;53.044;8.910;2023-02-15T08:44:10;1.20;99.90
33095;DHT22;19459;53.044;8.910;2023-02-15T08:46:41;1.30;99.90
33095;DHT22;19459;53.044;8.910;2023-02-15T08:49:10;1.30;99.90
33095;DHT22;19459;53.044;8.910;2023-02-15T08:51:44;1.40;99.90
33095;DHT22;19459;53.044;8.910;2023-02-15T08:54:13;1.60;99.90
33095;DHT22;19459;53.044;8.910;2023-02-15T08:56:45;1.60;99.90
33095;DHT22;19459;53.044;8.910;2023-02-15T08:59:16;1.70;99.90
33095;DHT22;19459;53.044;8.910;2023-02-15T09:01:44;1.80;99.90
33095;DHT22;19459;53.044;8.910;2023-02-15T09:04:11;2.00;99.90
33095;DHT22;19459;53.044;8.910;2023-02-15T09:06:39;2.10;99.90
33095;DHT22;19459;53.044;8.910;2023-02-15T09:09:07;2.20;99.90
33095;DHT22;19459;53.044;8.910;2023-02-15T09:11:36;2.50;99.90
33095;DHT22;19459;53.044;8.910;2023-02-15T09:14:14;2.70;99.90
33095;DHT22;19459;53.044;8.910;2023-02-15T09:16:43;2.90;99.90
33095;DHT22;19459;53.044;8.910;2023-02-15T09:19:12;3.10;99.90
33095;DHT22;19459;53.044;8.910;2023-02-15T09:21:38;3.20;99.90
33095;DHT22;19459;53.044;8.910;2023-02-15T09:24:16;3.10;99.90
33095;DHT22;19459;53.044;8.910;2023-02-15T09:26:47;3.30;99.90
33095;DHT22;19459;53.044;8.910;2023-02-15T09:29:14;3.50;99.90
33095;DHT22;19459;53.044;8.910;2023-02-15T09:31:46;3.70;99.90
33095;DHT22;19459;53.044;8.910;2023-02-15T09:34:15;3.80;99.90
33095;DHT22;19459;53.044;8.910;2023-02-15T09:36:43;4.00;99.90
33095;DHT22;19459;53.044;8.910;2023-02-15T09:39:14;4.30;99.90
33095;DHT22;19459;53.044;8.910;2023-02-15T09:47:10;5.10;99.90
33095;DHT22;19459;53.044;8.910;2023-02-15T10:15:23;6.60;99.90
33095;DHT22;19459;53.044;8.910;2023-02-15T10:24:35;6.80;99.90
33095;DHT22;19459;53.044;8.910;2023-02-15T10:27:16;6.90;99.90
33095;DHT22;19459;53.044;8.910;2023-02-15T10:30:11;7.10;99.90
33095;DHT22;19459;53.044;8.910;2023-02-15T10:33:01;6.90;99.90
33095;DHT22;19459;53.044;8.910;2023-02-15T10:35:56;7.20;99.90
33095;DHT22;19459;53.044;8.910;2023-02-15T10:38:52;7.50;99.90
33095;DHT22;19459;53.044;8.910;2023-02-15T10:41:58;8.00;99.90
33095;DHT22;19459;53.044;8.910;2023-02-15T10:44:47;8.10;99.90
33095;DHT22;19459;53.044;8.910;2023-02-15T10:50:52;8.70;99.90
33095;DHT22;19459;53.044;8.910;2023-02-15T10:56:24;8.10;99.90
33095;DHT22;19459;53.044;8.910;2023-02-15T11:01:37;8.50;99.90
33095;DHT22;19459;53.044;8.910;2023-02-15T11:07:17;8.70;99.90
33095;DHT22;19459;53.044;8.910;2023-02-15T11:13:18;8.60;99.90
33095;DHT22;19459;53.044;8.910;2023-02-15T11:18:41;8.70;99.90
33095;DHT22;19459;53.044;8.910;2023-02-15T11:23:45;9.10;99.90
33095;DHT22;19459;53.044;8.910;2023-02-15T11:29:01;9.60;99.90
33095;DHT22;19459;53.044;8.910;2023-02-15T11:31:44;9.80;99.90
33095;DHT22;19459;53.044;8.910;2023-02-15T11:34:20;9.80;99.90
33095;DHT22;19459;53.044;8.910;2023-02-15T11:36:52;10.00;99.90
33095;DHT22;19459;53.044;8.910;2023-02-15T11:39:21;10.30;99.90
33095;DHT22;19459;53.044;8.910;2023-02-15T11:41:55;10.50;99.90
33095;DHT22;19459;53.044;8.910;2023-02-15T11:47:11;10.60;99.90
33095;DHT22;19459;53.044;8.910;2023-02-15T11:49:38;10.00;99.90
33095;DHT22;19459;53.044;8.910;2023-02-15T11:52:11;10.40;99.90
33095;DHT22;19459;53.044;8.910;2023-02-15T11:54:45;10.60;99.90
33095;DHT22;19459;53.044;8.910;2023-02-15T12:02:45;11.10;99.90
33095;DHT22;19459;53.044;8.910;2023-02-15T12:05:16;11.10;99.90
33095;DHT22;19459;53.044;8.910;2023-02-15T12:11:07;10.90;99.90
33095;DHT22;19459;53.044;8.910;2023-02-15T12:13:57;11.20;99.90
33095;DHT22;19459;53.044;8.910;2023-02-15T12:16:31;11.40;99.90
33095;DHT22;19459;53.044;8.910;2023-02-15T12:19:00;11.80;99.90
33095;DHT22;19459;53.044;8.910;2023-02-15T12:21:30;11.90;99.90
33095;DHT22;19459;53.044;8.910;2023-02-15T12:24:19;11.90;99.90
33095;DHT22;19459;53.044;8.910;2023-02-15T12:27:05;12.00;99.90
33095;DHT22;19459;53.044;8.910;2023-02-15T12:29:48;11.80;99.90
33095;DHT22;19459;53.044;8.910;2023-02-15T12:32:24;12.00;99.90
33095;DHT22;19459;53.044;8.910;2023-02-15T12:34:59;12.10;99.90
33095;DHT22;19459;53.044;8.910;2023-02-15T12:37:30;12.00;99.90
33095;DHT22;19459;53.044;8.910;2023-02-15T12:40:41;11.70;99.90
33095;DHT22;19459;53.044;8.910;2023-02-15T12:43:32;11.30;99.90
33095;DHT22;19459;53.044;8.910;2023-02-15T12:46:28;11.50;99.90
33095;DHT22;19459;53.044;8.910;2023-02-15T12:54:40;11.60;99.90
33095;DHT22;19459;53.044;8.910;2023-02-15T13:00:03;11.90;99.90
33095;DHT22;19459;53.044;8.910;2023-02-15T13:05:18;11.70;99.90
33095;DHT22;19459;53.044;8.910;2023-02-15T13:07:51;12.00;99.90
33095;DHT22;19459;53.044;8.910;2023-02-15T13:13:22;12.60;99.90
33095;DHT22;19459;53.044;8.910;2023-02-15T13:16:01;12.60;99.90
33095;DHT22;19459;53.044;8.910;2023-02-15T13:18:42;12.60;99.90
33095;DHT22;19459;53.044;8.910;2023-02-15T13:21:15;12.40;99.90
33095;DHT22;19459;53.044;8.910;2023-02-15T13:26:55;12.30;99.90
33095;DHT22;19459;53.044;8.910;2023-02-15T13:29:28;12.40;99.90
33095;DHT22;19459;53.044;8.910;2023-02-15T13:31:57;12.20;99.90
33095;DHT22;19459;53.044;8.910;2023-02-15T13:34:27;12.40;99.90
33095;DHT22;19459;53.044;8.910;2023-02-15T13:37:41;12.20;99.90
33095;DHT22;19459;53.044;8.910;2023-02-15T13:40:53;12.00;99.90
33095;DHT22;19459;53.044;8.910;2023-02-15T13:46:56;12.30;99.90
33095;DHT22;19459;53.044;8.910;2023-02-15T14:05:30;12.10;99.90
33095;DHT22;19459;53.044;8.910;2023-02-15T14:11:44;12.00;99.90
33095;DHT22;19459;53.044;8.910;2023-02-15T14:17:24;11.90;99.90
33095;DHT22;19459;53.044;8.910;2023-02-15T14:20:14;12.00;99.90
33095;DHT22;19459;53.044;8.910;2023-02-15T14:25:47;12.00;99.90
33095;DHT22;19459;53.044;8.910;2023-02-15T14:28:19;11.90;99.90
33095;DHT22;19459;53.044;8.910;2023-02-15T14:30:53;11.90;99.90
33095;DHT22;19459;53.044;8.910;2023-02-15T14:33:38;11.70;99.90
33095;DHT22;19459;53.044;8.910;2023-02-15T14:36:07;11.50;99.90
33095;DHT22;19459;53.044;8.910;2023-02-15T14:42:12;11.90;99.90
33095;DHT22;19459;53.044;8.910;2023-02-15T14:45:02;11.90;99.90
33095;DHT22;19459;53.044;8.910;2023-02-15T14:47:44;11.90;99.90
33095;DHT22;19459;53.044;8.910;2023-02-15T14:50:42;11.90;99.90
33095;DHT22;19459;53.044;8.910;2023-02-15T14:53:45;11.80;99.90
33095;DHT22;19459;53.044;8.910;2023-02-15T15:01:30;11.30;99.90
33095;DHT22;19459;53.044;8.910;2023-02-15T15:07:22;11.10;99.90
33095;DHT22;19459;53.044;8.910;2023-02-15T15:12:44;11.00;99.90
33095;DHT22;19459;53.044;8.910;2023-02-15T15:15:33;10.90;99.90
33095;DHT22;19459;53.044;8.910;2023-02-15T15:18:06;10.90;99.90
33095;DHT22;19459;53.044;8.910;2023-02-15T15:20:48;10.80;99.90
33095;DHT22;19459;53.044;8.910;2023-02-15T15:31:18;10.50;99.90
33095;DHT22;19459;53.044;8.910;2023-02-15T15:40:42;10.30;99.90
33095;DHT22;19459;53.044;8.910;2023-02-15T15:43:46;10.20;99.90
33095;DHT22;19459;53.044;8.910;2023-02-15T15:49:18;10.00;99.90
33095;DHT22;19459;53.044;8.910;2023-02-15T15:51:45;10.00;99.90
33095;DHT22;19459;53.044;8.910;2023-02-15T15:54:16;9.90;99.90
33095;DHT22;19459;53.044;8.910;2023-02-15T15:56:48;9.90;99.90
33095;DHT22;19459;53.044;8.910;2023-02-15T15:59:22;9.80;99.90
33095;DHT22;19459;53.044;8.910;2023-02-15T16:01:50;9.80;99.90
33095;DHT22;19459;53.044;8.910;2023-02-15T16:04:28;9.70;99.90
33095;DHT22;19459;53.044;8.910;2023-02-15T16:06:56;9.70;99.90
33095;DHT22;19459;53.044;8.910;2023-02-15T16:09:25;9.60;99.90
33095;DHT22;19459;53.044;8.910;2023-02-15T16:11:55;9.60;99.90
33095;DHT22;19459;53.044;8.910;2023-02-15T16:14:30;9.50;99.90
33095;DHT22;19459;53.044;8.910;2023-02-15T16:17:00;9.40;99.90
33095;DHT22;19459;53.044;8.910;2023-02-15T16:19:30;9.30;99.90
33095;DHT22;19459;53.044;8.910;2023-02-15T16:22:00;9.20;99.90
33095;DHT22;19459;53.044;8.910;2023-02-15T16:27:33;9.10;99.90
33095;DHT22;19459;53.044;8.910;2023-02-15T16:32:43;8.80;99.90
33095;DHT22;19459;53.044;8.910;2023-02-15T16:35:13;8.80;99.90
33095;DHT22;19459;53.044;8.910;2023-02-15T16:37:41;8.70;99.90
33095;DHT22;19459;53.044;8.910;2023-02-15T16:42:56;8.60;99.90
33095;DHT22;19459;53.044;8.910;2023-02-15T16:45:29;8.50;99.90
33095;DHT22;19459;53.044;8.910;2023-02-15T16:47:59;8.40;99.90
33095;DHT22;19459;53.044;8.910;2023-02-15T16:50:33;8.40;99.90
33095;DHT22;19459;53.044;8.910;2023-02-15T16:53:00;8.30;99.90
33095;DHT22;19459;53.044;8.910;2023-02-15T16:55:29;8.30;99.90
33095;DHT22;19459;53.044;8.910;2023-02-15T16:58:03;8.30;99.90
33095;DHT22;19459;53.044;8.910;2023-02-15T17:00:37;8.20;99.90
33095;DHT22;19459;53.044;8.910;2023-02-15T17:03:21;8.10;99.90
33095;DHT22;19459;53.044;8.910;2023-02-15T17:05:52;8.10;99.90
33095;DHT22;19459;53.044;8.910;2023-02-15T17:08:43;8.10;99.90
33095;DHT22;19459;53.044;8.910;2023-02-15T17:11:19;8.00;99.90
33095;DHT22;19459;53.044;8.910;2023-02-15T17:16:50;7.80;99.90
33095;DHT22;19459;53.044;8.910;2023-02-15T17:19:30;7.80;99.90
33095;DHT22;19459;53.044;8.910;2023-02-15T17:22:05;7.70;99.90
33095;DHT22;19459;53.044;8.910;2023-02-15T17:24:41;7.70;99.90
33095;DHT22;19459;53.044;8.910;2023-02-15T17:27:16;7.60;99.90
33095;DHT22;19459;53.044;8.910;2023-02-15T17:29:55;7.60;99.90
33095;DHT22;19459;53.044;8.910;2023-02-15T17:32:27;7.50;99.90
33095;DHT22;19459;53.044;8.910;2023-02-15T17:40:34;7.40;99.90
33095;DHT22;19459;53.044;8.910;2023-02-15T17:43:01;7.40;99.90
33095;DHT22;19459;53.044;8.910;2023-02-15T17:45:56;7.40;99.90
33095;DHT22;19459;53.044;8.910;2023-02-15T17:50:57;7.30;99.90
33095;DHT22;19459;53.044;8.910;2023-02-15T17:53:32;7.30;99.90
33095;DHT22;19459;53.044;8.910;2023-02-15T17:55:58;7.30;99.90
33095;DHT22;19459;53.044;8.910;2023-02-15T17:58:24;7.20;99.90
33095;DHT22;19459;53.044;8.910;2023-02-15T18:00:54;7.20;99.90
33095;DHT22;19459;53.044;8.910;2023-02-15T18:06:43;7.10;99.90
33095;DHT22;19459;53.044;8.910;2023-02-15T18:09:27;7.00;99.90
33095;DHT22;19459;53.044;8.910;2023-02-15T18:12:24;7.00;99.90
33095;DHT22;19459;53.044;8.910;2023-02-15T18:14:59;6.90;99.90
33095;DHT22;19459;53.044;8.910;2023-02-15T18:19:54;6.80;99.90
33095;DHT22;19459;53.044;8.910;2023-02-15T18:22:20;6.80;99.90
33095;DHT22;19459;53.044;8.910;2023-02-15T18:24:47;6.70;99.90
33095;DHT22;19459;53.044;8.910;2023-02-15T18:27:14;6.70;99.90
33095;DHT22;19459;53.044;8.910;2023-02-15T18:29:41;6.70;99.90
33095;DHT22;19459;53.044;8.910;2023-02-15T18:32:12;6.60;99.90
33095;DHT22;19459;53.044;8.910;2023-02-15T18:34:42;6.60;99.90
33095;DHT22;19459;53.044;8.910;2023-02-15T18:37:15;6.50;99.90
33095;DHT22;19459;53.044;8.910;2023-02-15T18:39:46;6.50;99.90
33095;DHT22;19459;53.044;8.910;2023-02-15T18:42:20;6.50;99.90
33095;DHT22;19459;53.044;8.910;2023-02-15T18:44:49;6.50;99.90
33095;DHT22;19459;53.044;8.910;2023-02-15T18:47:19;6.50;99.90
33095;DHT22;19459;53.044;8.910;2023-02-15T18:49:45;6.50;99.90
33095;DHT22;19459;53.044;8.910;2023-02-15T18:52:32;6.40;99.90
33095;DHT22;19459;53.044;8.910;2023-02-15T18:55:02;6.50;99.90
33095;DHT22;19459;53.044;8.910;2023-02-15T18:57:44;6.50;99.90
33095;DHT22;19459;53.044;8.910;2023-02-15T19:00:28;6.40;99.90
33095;DHT22;19459;53.044;8.910;2023-02-15T19:02:59;6.40;99.90
33095;DHT22;19459;53.044;8.910;2023-02-15T19:05:31;6.30;99.90
33095;DHT22;19459;53.044;8.910;2023-02-15T19:07:58;6.30;99.90
33095;DHT22;19459;53.044;8.910;2023-02-15T19:10:27;6.30;99.90
33095;DHT22;19459;53.044;8.910;2023-02-15T19:12:54;6.20;99.90
33095;DHT22;19459;53.044;8.910;2023-02-15T19:15:26;6.20;99.90
33095;DHT22;19459;53.044;8.910;2023-02-15T19:17:54;6.20;99.90
33095;DHT22;19459;53.044;8.910;2023-02-15T19:20:32;6.20;99.90
33095;DHT22;19459;53.044;8.910;2023-02-15T19:23:10;6.10;99.90
33095;DHT22;19459;53.044;8.910;2023-02-15T19:25:39;6.10;99.90
33095;DHT22;19459;53.044;8.910;2023-02-15T19:28:13;6.00;99.90
33095;DHT22;19459;53.044;8.910;2023-02-15T19:30:40;6.00;99.90
33095;DHT22;19459;53.044;8.910;2023-02-15T19:33:14;5.90;99.90
33095;DHT22;19459;53.044;8.910;2023-02-15T19:35:44;5.90;99.90
33095;DHT22;19459;53.044;8.910;2023-02-15T19:38:19;5.80;99.90